sensor_id;sensor_type;location;lat;lon;timestamp;temperature;humidity
11047;DHT22;5576;50.008;10.596;2023-03-19T00:01:42;9.80;99.90
11047;DHT22;5576;50.008;10.596;2023-03-19T00:04:08;12.70;99.90
11047;DHT22;5576;50.008;10.596;2023-03-19T00:06:34;13.50;99.90
11047;DHT22;5576;50.008;10.596;2023-03-19T00:09:00;9.70;99.90
11047;DHT22;5576;50.008;10.596;2023-03-19T00:11:26;11.40;99.90
11047;DHT22;5576;50.008;10.596;2023-03-19T00:13:52;9.70;99.90
11047;DHT22;5576;50.008;10.596;2023-03-19T00:16:18;9.60;99.90
11047;DHT22;5576;50.008;10.596;2023-03-19T00:18:43;9.60;99.90
11047;DHT22;5576;50.008;10.596;2023-03-19T00:21:09;12.00;99.90
11047;DHT22;5576;50.008;10.596;2023-03-19T00:23:35;9.60;99.90
11047;DHT22;5576;50.008;10.596;2023-03-19T00:26:02;9.60;99.90
11047;DHT22;5576;50.008;10.596;2023-03-19T00:28:28;9.80;99.90
11047;DHT22;5576;50.008;10.596;2023-03-19T00:30:54;9.70;99.90
11047;DHT22;5576;50.008;10.596;2023-03-19T00:33:20;9.80;99.90
11047;DHT22;5576;50.008;10.596;2023-03-19T00:35:47;9.70;99.90
11047;DHT22;5576;50.008;10.596;2023-03-19T00:38:12;9.70;99.90
11047;DHT22;5576;50.008;10.596;2023-03-19T00:40:39;9.60;99.90
11047;DHT22;5576;50.008;10.596;2023-03-19T00:43:05;9.60;99.90
11047;DHT22;5576;50.008;10.596;2023-03-19T00:45:31;9.60;99.90
11047;DHT22;5576;50.008;10.596;2023-03-19T00:47:57;8.20;99.90
11047;DHT22;5576;50.008;10.596;2023-03-19T00:50:23;9.50;99.90
11047;DHT22;5576;50.008;10.596;2023-03-19T00:52:50;9.40;99.90
11047;DHT22;5576;50.008;10.596;2023-03-19T00:55:17;9.30;99.90
11047;DHT22;5576;50.008;10.596;2023-03-19T00:57:43;6.40;99.90
11047;DHT22;5576;50.008;10.596;2023-03-19T01:00:09;9.10;99.90
11047;DHT22;5576;50.008;10.596;2023-03-19T01:02:35;6.70;99.90
11047;DHT22;5576;50.008;10.596;2023-03-19T01:05:01;9.10;99.90
11047;DHT22;5576;50.008;10.596;2023-03-19T01:07:27;9.00;99.90
11047;DHT22;5576;50.008;10.596;2023-03-19T01:09:55;8.90;99.90
11047;DHT22;5576;50.008;10.596;2023-03-19T01:12:20;8.80;99.90
11047;DHT22;5576;50.008;10.596;2023-03-19T01:14:46;11.30;99.90
11047;DHT22;5576;50.008;10.596;2023-03-19T01:17:12;8.70;99.90
11047;DHT22;5576;50.008;10.596;2023-03-19T01:19:37;8.70;99.90
11047;DHT22;5576;50.008;10.596;2023-03-19T01:22:03;8.70;99.90
11047;DHT22;5576;50.008;10.596;2023-03-19T01:24:31;8.60;99.90
11047;DHT22;5576;50.008;10.596;2023-03-19T01:26:57;8.60;99.90
11047;DHT22;5576;50.008;10.596;2023-03-19T01:29:28;9.30;99.90
11047;DHT22;5576;50.008;10.596;2023-03-19T01:31:56;9.30;99.90
11047;DHT22;5576;50.008;10.596;2023-03-19T01:34:34;4.80;99.90
11047;DHT22;5576;50.008;10.596;2023-03-19T01:37:06;12.40;99.90
11047;DHT22;5576;50.008;10.596;2023-03-19T01:39:32;8.40;99.90
11047;DHT22;5576;50.008;10.596;2023-03-19T01:42:01;6.30;99.90
11047;DHT22;5576;50.008;10.596;2023-03-19T01:44:35;7.50;99.90
11047;DHT22;5576;50.008;10.596;2023-03-19T01:47:28;8.30;99.90
11047;DHT22;5576;50.008;10.596;2023-03-19T01:50:23;8.30;99.90
11047;DHT22;5576;50.008;10.596;2023-03-19T01:52:56;8.20;99.90
11047;DHT22;5576;50.008;10.596;2023-03-19T01:55:29;8.20;99.90
11047;DHT22;5576;50.008;10.596;2023-03-19T01:58:15;8.20;99.90
11047;DHT22;5576;50.008;10.596;2023-03-19T02:01:02;4.90;99.90
11047;DHT22;5576;50.008;10.596;2023-03-19T02:03:28;8.20;99.90
11047;DHT22;5576;50.008;10.596;2023-03-19T02:06:14;8.20;99.90
11047;DHT22;5576;50.008;10.596;2023-03-19T02:08:41;10.10;99.90
11047;DHT22;5576;50.008;10.596;2023-03-19T02:11:07;11.00;99.90
11047;DHT22;5576;50.008;10.596;2023-03-19T02:13:34;8.10;99.90
11047;DHT22;5576;50.008;10.596;2023-03-19T02:16:01;10.80;99.90
11047;DHT22;5576;50.008;10.596;2023-03-19T02:18:27;8.00;99.90
11047;DHT22;5576;50.008;10.596;2023-03-19T02:26:15;8.10;99.90
11047;DHT22;5576;50.008;10.596;2023-03-19T02:28:44;8.10;99.90
11047;DHT22;5576;50.008;10.596;2023-03-19T02:31:14;9.50;99.90
11047;DHT22;5576;50.008;10.596;2023-03-19T02:33:41;7.90;99.90
11047;DHT22;5576;50.008;10.596;2023-03-19T02:36:11;6.80;99.90
11047;DHT22;5576;50.008;10.596;2023-03-19T02:38:40;7.30;99.90
11047;DHT22;5576;50.008;10.596;2023-03-19T02:41:07;10.50;99.90
11047;DHT22;5576;50.008;10.596;2023-03-19T02:43:35;7.70;99.90
11047;DHT22;5576;50.008;10.596;2023-03-19T02:46:03;9.60;99.90
11047;DHT22;5576;50.008;10.596;2023-03-19T02:48:30;7.80;99.90
11047;DHT22;5576;50.008;10.596;2023-03-19T02:50:57;7.80;99.90
11047;DHT22;5576;50.008;10.596;2023-03-19T02:53:24;7.60;99.90
11047;DHT22;5576;50.008;10.596;2023-03-19T02:55:50;7.90;99.90
11047;DHT22;5576;50.008;10.596;2023-03-19T02:58:16;7.90;99.90
11047;DHT22;5576;50.008;10.596;2023-03-19T03:00:42;11.50;99.90
11047;DHT22;5576;50.008;10.596;2023-03-19T03:03:10;10.70;99.90
11047;DHT22;5576;50.008;10.596;2023-03-19T03:05:36;7.50;99.90
11047;DHT22;5576;50.008;10.596;2023-03-19T03:08:02;7.40;99.90
11047;DHT22;5576;50.008;10.596;2023-03-19T03:10:29;7.30;99.90
11047;DHT22;5576;50.008;10.596;2023-03-19T03:12:55;7.20;99.90
11047;DHT22;5576;50.008;10.596;2023-03-19T03:15:21;7.10;99.90
11047;DHT22;5576;50.008;10.596;2023-03-19T03:17:47;7.30;99.90
11047;DHT22;5576;50.008;10.596;2023-03-19T03:20:15;4.50;99.90
11047;DHT22;5576;50.008;10.596;2023-03-19T03:22:42;7.60;99.90
11047;DHT22;5576;50.008;10.596;2023-03-19T03:25:09;7.60;99.90
11047;DHT22;5576;50.008;10.596;2023-03-19T03:27:36;8.40;99.90
11047;DHT22;5576;50.008;10.596;2023-03-19T03:30:05;7.50;99.90
11047;DHT22;5576;50.008;10.596;2023-03-19T03:32:34;7.40;99.90
11047;DHT22;5576;50.008;10.596;2023-03-19T03:35:01;9.70;99.90
11047;DHT22;5576;50.008;10.596;2023-03-19T03:37:28;10.60;99.90
11047;DHT22;5576;50.008;10.596;2023-03-19T03:39:54;7.60;99.90
11047;DHT22;5576;50.008;10.596;2023-03-19T03:42:20;7.50;99.90
11047;DHT22;5576;50.008;10.596;2023-03-19T03:44:46;7.60;99.90
11047;DHT22;5576;50.008;10.596;2023-03-19T03:47:12;10.80;99.90
11047;DHT22;5576;50.008;10.596;2023-03-19T03:49:38;7.40;99.90
11047;DHT22;5576;50.008;10.596;2023-03-19T03:52:05;7.50;99.90
11047;DHT22;5576;50.008;10.596;2023-03-19T03:54:33;7.30;99.90
11047;DHT22;5576;50.008;10.596;2023-03-19T03:56:59;9.70;99.90
11047;DHT22;5576;50.008;10.596;2023-03-19T03:59:25;7.30;99.90
11047;DHT22;5576;50.008;10.596;2023-03-19T04:01:51;7.40;99.90
11047;DHT22;5576;50.008;10.596;2023-03-19T04:04:17;7.40;99.90
11047;DHT22;5576;50.008;10.596;2023-03-19T04:06:45;7.30;99.90
11047;DHT22;5576;50.008;10.596;2023-03-19T04:09:16;7.10;99.90
11047;DHT22;5576;50.008;10.596;2023-03-19T04:11:42;4.30;99.90
11047;DHT22;5576;50.008;10.596;2023-03-19T04:14:08;6.90;99.90
11047;DHT22;5576;50.008;10.596;2023-03-19T04:16:36;9.60;99.90
11047;DHT22;5576;50.008;10.596;2023-03-19T04:19:01;7.50;99.90
11047;DHT22;5576;50.008;10.596;2023-03-19T04:21:28;7.00;99.90
11047;DHT22;5576;50.008;10.596;2023-03-19T04:23:54;11.00;99.90
11047;DHT22;5576;50.008;10.596;2023-03-19T04:26:20;7.10;99.90
11047;DHT22;5576;50.008;10.596;2023-03-19T04:28:46;8.00;99.90
11047;DHT22;5576;50.008;10.596;2023-03-19T04:31:11;11.00;99.90
11047;DHT22;5576;50.008;10.596;2023-03-19T04:33:42;9.50;99.90
11047;DHT22;5576;50.008;10.596;2023-03-19T04:36:08;3.60;99.90
11047;DHT22;5576;50.008;10.596;2023-03-19T04:38:35;7.40;99.90
11047;DHT22;5576;50.008;10.596;2023-03-19T04:41:01;7.30;99.90
11047;DHT22;5576;50.008;10.596;2023-03-19T04:43:27;5.00;99.90
11047;DHT22;5576;50.008;10.596;2023-03-19T04:45:53;7.50;99.90
11047;DHT22;5576;50.008;10.596;2023-03-19T04:48:21;7.40;99.90
11047;DHT22;5576;50.008;10.596;2023-03-19T04:50:49;7.30;99.90
11047;DHT22;5576;50.008;10.596;2023-03-19T04:53:18;7.50;99.90
11047;DHT22;5576;50.008;10.596;2023-03-19T04:55:46;7.30;99.90
11047;DHT22;5576;50.008;10.596;2023-03-19T04:58:15;7.30;99.90
11047;DHT22;5576;50.008;10.596;2023-03-19T05:00:42;7.30;99.90
11047;DHT22;5576;50.008;10.596;2023-03-19T05:03:14;7.30;99.90
11047;DHT22;5576;50.008;10.596;2023-03-19T05:05:40;7.30;99.90
11047;DHT22;5576;50.008;10.596;2023-03-19T05:08:07;9.90;99.90
11047;DHT22;5576;50.008;10.596;2023-03-19T05:10:35;5.00;99.90
11047;DHT22;5576;50.008;10.596;2023-03-19T05:13:03;7.20;99.90
11047;DHT22;5576;50.008;10.596;2023-03-19T05:15:30;7.10;99.90
11047;DHT22;5576;50.008;10.596;2023-03-19T05:18:03;7.00;99.90
11047;DHT22;5576;50.008;10.596;2023-03-19T05:20:35;10.40;99.90
11047;DHT22;5576;50.008;10.596;2023-03-19T05:23:05;6.80;99.90
11047;DHT22;5576;50.008;10.596;2023-03-19T05:25:40;8.80;99.90
11047;DHT22;5576;50.008;10.596;2023-03-19T05:28:08;7.00;99.90
11047;DHT22;5576;50.008;10.596;2023-03-19T05:30:34;5.60;99.90
11047;DHT22;5576;50.008;10.596;2023-03-19T05:33:01;7.10;99.90
11047;DHT22;5576;50.008;10.596;2023-03-19T05:35:35;7.20;99.90
11047;DHT22;5576;50.008;10.596;2023-03-19T05:38:06;7.60;99.90
11047;DHT22;5576;50.008;10.596;2023-03-19T05:40:33;7.60;99.90
11047;DHT22;5576;50.008;10.596;2023-03-19T05:43:10;7.60;99.90
11047;DHT22;5576;50.008;10.596;2023-03-19T05:45:36;7.60;99.90
11047;DHT22;5576;50.008;10.596;2023-03-19T05:48:11;6.30;99.90
11047;DHT22;5576;50.008;10.596;2023-03-19T05:50:42;11.30;99.90
11047;DHT22;5576;50.008;10.596;2023-03-19T05:53:23;7.70;99.90
11047;DHT22;5576;50.008;10.596;2023-03-19T05:56:06;6.80;99.90
11047;DHT22;5576;50.008;10.596;2023-03-19T05:58:40;7.40;99.90
11047;DHT22;5576;50.008;10.596;2023-03-19T06:01:06;7.50;99.90
11047;DHT22;5576;50.008;10.596;2023-03-19T06:03:32;8.40;99.90
11047;DHT22;5576;50.008;10.596;2023-03-19T06:06:03;7.70;99.90
11047;DHT22;5576;50.008;10.596;2023-03-19T06:08:34;7.80;99.90
11047;DHT22;5576;50.008;10.596;2023-03-19T06:11:07;7.90;99.90
11047;DHT22;5576;50.008;10.596;2023-03-19T06:13:34;8.60;99.90
11047;DHT22;5576;50.008;10.596;2023-03-19T06:16:06;7.90;99.90
11047;DHT22;5576;50.008;10.596;2023-03-19T06:18:35;7.90;99.90
11047;DHT22;5576;50.008;10.596;2023-03-19T06:21:07;7.90;99.90
11047;DHT22;5576;50.008;10.596;2023-03-19T06:23:32;7.80;99.90
11047;DHT22;5576;50.008;10.596;2023-03-19T06:26:00;7.30;99.90
11047;DHT22;5576;50.008;10.596;2023-03-19T06:28:31;7.50;99.90
11047;DHT22;5576;50.008;10.596;2023-03-19T06:30:57;7.50;99.90
11047;DHT22;5576;50.008;10.596;2023-03-19T06:33:43;7.50;99.90
11047;DHT22;5576;50.008;10.596;2023-03-19T06:36:09;11.00;99.90
11047;DHT22;5576;50.008;10.596;2023-03-19T06:38:35;7.40;99.90
11047;DHT22;5576;50.008;10.596;2023-03-19T06:41:01;6.50;99.90
11047;DHT22;5576;50.008;10.596;2023-03-19T06:43:27;7.50;99.90
11047;DHT22;5576;50.008;10.596;2023-03-19T06:45:53;7.50;99.90
11047;DHT22;5576;50.008;10.596;2023-03-19T06:48:19;7.70;99.90
11047;DHT22;5576;50.008;10.596;2023-03-19T06:50:45;7.80;99.90
11047;DHT22;5576;50.008;10.596;2023-03-19T06:53:12;6.00;99.90
11047;DHT22;5576;50.008;10.596;2023-03-19T06:55:37;7.80;99.90
11047;DHT22;5576;50.008;10.596;2023-03-19T06:58:04;7.80;99.90
11047;DHT22;5576;50.008;10.596;2023-03-19T07:00:32;7.40;99.90
11047;DHT22;5576;50.008;10.596;2023-03-19T07:02:58;11.20;99.90
11047;DHT22;5576;50.008;10.596;2023-03-19T07:05:24;8.50;99.90
11047;DHT22;5576;50.008;10.596;2023-03-19T07:07:50;8.10;99.90
11047;DHT22;5576;50.008;10.596;2023-03-19T07:10:19;8.10;99.90
11047;DHT22;5576;50.008;10.596;2023-03-19T07:12:44;11.80;99.90
11047;DHT22;5576;50.008;10.596;2023-03-19T07:15:10;7.90;99.90
11047;DHT22;5576;50.008;10.596;2023-03-19T07:17:36;8.10;99.90
11047;DHT22;5576;50.008;10.596;2023-03-19T07:20:02;8.10;99.90
11047;DHT22;5576;50.008;10.596;2023-03-19T07:22:28;8.20;99.90
11047;DHT22;5576;50.008;10.596;2023-03-19T07:24:54;10.40;99.90
11047;DHT22;5576;50.008;10.596;2023-03-19T07:27:20;8.00;99.90
11047;DHT22;5576;50.008;10.596;2023-03-19T07:29:47;10.60;99.90
11047;DHT22;5576;50.008;10.596;2023-03-19T07:32:13;8.00;99.90
11047;DHT22;5576;50.008;10.596;2023-03-19T07:34:39;8.20;99.90
11047;DHT22;5576;50.008;10.596;2023-03-19T07:37:05;8.10;99.90
11047;DHT22;5576;50.008;10.596;2023-03-19T07:39:31;8.10;99.90
11047;DHT22;5576;50.008;10.596;2023-03-19T07:41:57;8.10;99.90
11047;DHT22;5576;50.008;10.596;2023-03-19T07:44:22;8.20;99.90
11047;DHT22;5576;50.008;10.596;2023-03-19T07:46:48;8.10;99.90
11047;DHT22;5576;50.008;10.596;2023-03-19T07:49:14;10.10;99.90
11047;DHT22;5576;50.008;10.596;2023-03-19T07:51:39;8.20;99.90
11047;DHT22;5576;50.008;10.596;2023-03-19T07:54:05;8.10;99.90
11047;DHT22;5576;50.008;10.596;2023-03-19T07:56:31;4.60;99.90
11047;DHT22;5576;50.008;10.596;2023-03-19T07:58:57;8.00;99.90
11047;DHT22;5576;50.008;10.596;2023-03-19T08:01:24;8.00;99.90
11047;DHT22;5576;50.008;10.596;2023-03-19T08:03:51;9.60;99.90
11047;DHT22;5576;50.008;10.596;2023-03-19T08:06:16;9.60;99.90
11047;DHT22;5576;50.008;10.596;2023-03-19T08:08:42;5.50;99.90
11047;DHT22;5576;50.008;10.596;2023-03-19T08:11:08;6.80;99.90
11047;DHT22;5576;50.008;10.596;2023-03-19T08:13:34;7.50;99.90
11047;DHT22;5576;50.008;10.596;2023-03-19T08:15:59;9.60;99.90
11047;DHT22;5576;50.008;10.596;2023-03-19T08:18:25;6.40;99.90
11047;DHT22;5576;50.008;10.596;2023-03-19T08:20:51;8.20;99.90
11047;DHT22;5576;50.008;10.596;2023-03-19T08:23:17;7.40;99.90
11047;DHT22;5576;50.008;10.596;2023-03-19T08:25:43;5.90;99.90
11047;DHT22;5576;50.008;10.596;2023-03-19T08:28:09;8.00;99.90
11047;DHT22;5576;50.008;10.596;2023-03-19T08:30:36;5.80;99.90
11047;DHT22;5576;50.008;10.596;2023-03-19T08:33:02;8.40;99.90
11047;DHT22;5576;50.008;10.596;2023-03-19T08:35:28;8.40;99.90
11047;DHT22;5576;50.008;10.596;2023-03-19T08:37:54;8.60;99.90
11047;DHT22;5576;50.008;10.596;2023-03-19T08:40:21;11.60;99.90
11047;DHT22;5576;50.008;10.596;2023-03-19T08:42:47;12.40;99.90
11047;DHT22;5576;50.008;10.596;2023-03-19T08:45:14;10.80;99.90
11047;DHT22;5576;50.008;10.596;2023-03-19T08:47:41;9.00;99.90
11047;DHT22;5576;50.008;10.596;2023-03-19T08:50:07;9.90;99.90
11047;DHT22;5576;50.008;10.596;2023-03-19T08:52:33;12.70;99.90
11047;DHT22;5576;50.008;10.596;2023-03-19T08:54:59;9.40;99.90
11047;DHT22;5576;50.008;10.596;2023-03-19T08:57:25;9.70;99.90
11047;DHT22;5576;50.008;10.596;2023-03-19T08:59:52;9.70;99.90
11047;DHT22;5576;50.008;10.596;2023-03-19T09:02:18;11.00;99.90
11047;DHT22;5576;50.008;10.596;2023-03-19T09:04:44;9.90;99.90
11047;DHT22;5576;50.008;10.596;2023-03-19T09:07:11;10.10;99.90
11047;DHT22;5576;50.008;10.596;2023-03-19T09:09:38;10.30;99.90
11047;DHT22;5576;50.008;10.596;2023-03-19T09:12:05;10.10;99.90
11047;DHT22;5576;50.008;10.596;2023-03-19T09:14:33;8.40;99.90
11047;DHT22;5576;50.008;10.596;2023-03-19T09:16:59;9.80;99.90
11047;DHT22;5576;50.008;10.596;2023-03-19T09:19:25;9.70;99.90
11047;DHT22;5576;50.008;10.596;2023-03-19T09:21:51;9.80;99.90
11047;DHT22;5576;50.008;10.596;2023-03-19T09:24:17;9.80;99.90
11047;DHT22;5576;50.008;10.596;2023-03-19T09:26:44;9.80;99.90
11047;DHT22;5576;50.008;10.596;2023-03-19T09:29:11;9.90;99.90
11047;DHT22;5576;50.008;10.596;2023-03-19T09:31:37;8.80;99.90
11047;DHT22;5576;50.008;10.596;2023-03-19T09:34:03;10.10;99.90
11047;DHT22;5576;50.008;10.596;2023-03-19T09:36:28;10.20;99.90
11047;DHT22;5576;50.008;10.596;2023-03-19T09:38:55;10.40;99.90
11047;DHT22;5576;50.008;10.596;2023-03-19T09:44:02;10.50;99.90
11047;DHT22;5576;50.008;10.596;2023-03-19T09:46:33;10.60;99.90
11047;DHT22;5576;50.008;10.596;2023-03-19T09:49:21;10.60;99.90
11047;DHT22;5576;50.008;10.596;2023-03-19T09:51:50;10.60;99.90
11047;DHT22;5576;50.008;10.596;2023-03-19T09:57:01;10.90;99.90
11047;DHT22;5576;50.008;10.596;2023-03-19T09:59:27;13.00;99.90
11047;DHT22;5576;50.008;10.596;2023-03-19T10:13:12;12.90;99.90
11047;DHT22;5576;50.008;10.596;2023-03-19T10:15:40;11.30;99.90
11047;DHT22;5576;50.008;10.596;2023-03-19T10:18:16;13.30;99.90
11047;DHT22;5576;50.008;10.596;2023-03-19T10:20:47;11.40;99.90
11047;DHT22;5576;50.008;10.596;2023-03-19T10:26:25;8.70;99.90
11047;DHT22;5576;50.008;10.596;2023-03-19T10:29:01;11.80;99.90
11047;DHT22;5576;50.008;10.596;2023-03-19T10:37:19;11.60;99.90
11047;DHT22;5576;50.008;10.596;2023-03-19T10:39:47;11.50;99.90
11047;DHT22;5576;50.008;10.596;2023-03-19T10:45:17;11.60;99.90
11047;DHT22;5576;50.008;10.596;2023-03-19T10:47:44;11.60;99.90
11047;DHT22;5576;50.008;10.596;2023-03-19T10:50:16;11.50;99.90
11047;DHT22;5576;50.008;10.596;2023-03-19T10:52:43;11.60;99.90
11047;DHT22;5576;50.008;10.596;2023-03-19T10:55:16;11.60;99.90
11047;DHT22;5576;50.008;10.596;2023-03-19T10:57:44;8.00;99.90
11047;DHT22;5576;50.008;10.596;2023-03-19T11:00:18;14.70;99.90
11047;DHT22;5576;50.008;10.596;2023-03-19T11:02:48;11.80;99.90
11047;DHT22;5576;50.008;10.596;2023-03-19T11:05:23;11.90;99.90
11047;DHT22;5576;50.008;10.596;2023-03-19T11:07:55;10.70;99.90
11047;DHT22;5576;50.008;10.596;2023-03-19T11:10:25;12.00;99.90
11047;DHT22;5576;50.008;10.596;2023-03-19T11:12:55;11.90;99.90
11047;DHT22;5576;50.008;10.596;2023-03-19T11:15:27;12.40;99.90
11047;DHT22;5576;50.008;10.596;2023-03-19T11:17:57;12.00;99.90
11047;DHT22;5576;50.008;10.596;2023-03-19T11:20:30;13.90;99.90
11047;DHT22;5576;50.008;10.596;2023-03-19T11:22:57;14.90;99.90
11047;DHT22;5576;50.008;10.596;2023-03-19T11:25:30;14.00;99.90
11047;DHT22;5576;50.008;10.596;2023-03-19T11:28:06;12.70;99.90
11047;DHT22;5576;50.008;10.596;2023-03-19T11:33:17;12.50;99.90
11047;DHT22;5576;50.008;10.596;2023-03-19T11:35:54;12.50;99.90
11047;DHT22;5576;50.008;10.596;2023-03-19T11:38:31;15.90;99.90
11047;DHT22;5576;50.008;10.596;2023-03-19T11:43:53;16.50;99.90
11047;DHT22;5576;50.008;10.596;2023-03-19T11:54:42;14.00;99.90
11047;DHT22;5576;50.008;10.596;2023-03-19T11:57:17;16.90;99.90
11047;DHT22;5576;50.008;10.596;2023-03-19T11:59:51;13.70;99.90
11047;DHT22;5576;50.008;10.596;2023-03-19T12:07:43;14.30;99.90
11047;DHT22;5576;50.008;10.596;2023-03-19T12:18:29;16.70;99.90
11047;DHT22;5576;50.008;10.596;2023-03-19T12:21:19;15.00;99.90
11047;DHT22;5576;50.008;10.596;2023-03-19T12:26:23;14.90;99.90
11047;DHT22;5576;50.008;10.596;2023-03-19T12:28:58;14.90;99.90
11047;DHT22;5576;50.008;10.596;2023-03-19T12:34:25;14.90;99.90
11047;DHT22;5576;50.008;10.596;2023-03-19T12:37:16;14.40;99.90
11047;DHT22;5576;50.008;10.596;2023-03-19T12:40:06;12.50;99.90
11047;DHT22;5576;50.008;10.596;2023-03-19T12:42:38;14.30;99.90
11047;DHT22;5576;50.008;10.596;2023-03-19T12:45:16;11.20;99.90
11047;DHT22;5576;50.008;10.596;2023-03-19T12:47:44;14.80;99.90
11047;DHT22;5576;50.008;10.596;2023-03-19T12:50:13;14.80;99.90
11047;DHT22;5576;50.008;10.596;2023-03-19T12:52:50;14.70;99.90
11047;DHT22;5576;50.008;10.596;2023-03-19T12:57:57;16.30;99.90
11047;DHT22;5576;50.008;10.596;2023-03-19T13:05:57;14.50;99.90
11047;DHT22;5576;50.008;10.596;2023-03-19T13:10:57;14.70;99.90
11047;DHT22;5576;50.008;10.596;2023-03-19T13:16:05;15.80;99.90
11047;DHT22;5576;50.008;10.596;2023-03-19T13:18:58;19.10;99.90
11047;DHT22;5576;50.008;10.596;2023-03-19T13:21:29;15.40;99.90
11047;DHT22;5576;50.008;10.596;2023-03-19T13:24:13;15.60;99.90
11047;DHT22;5576;50.008;10.596;2023-03-19T13:26:40;15.70;99.90
11047;DHT22;5576;50.008;10.596;2023-03-19T13:29:13;15.80;99.90
11047;DHT22;5576;50.008;10.596;2023-03-19T13:31:41;15.80;99.90
11047;DHT22;5576;50.008;10.596;2023-03-19T13:34:25;15.60;99.90
11047;DHT22;5576;50.008;10.596;2023-03-19T13:39:25;15.30;99.90
11047;DHT22;5576;50.008;10.596;2023-03-19T13:47:36;15.10;99.90
11047;DHT22;5576;50.008;10.596;2023-03-19T13:52:53;15.10;99.90
11047;DHT22;5576;50.008;10.596;2023-03-19T13:55:28;13.60;99.90
11047;DHT22;5576;50.008;10.596;2023-03-19T13:58:42;15.10;99.90
11047;DHT22;5576;50.008;10.596;2023-03-19T14:03:55;15.00;99.90
11047;DHT22;5576;50.008;10.596;2023-03-19T14:06:44;15.10;99.90
11047;DHT22;5576;50.008;10.596;2023-03-19T14:09:29;15.10;99.90
11047;DHT22;5576;50.008;10.596;2023-03-19T14:15:02;15.20;99.90
11047;DHT22;5576;50.008;10.596;2023-03-19T14:17:34;14.50;99.90
11047;DHT22;5576;50.008;10.596;2023-03-19T14:26:22;15.40;99.90
11047;DHT22;5576;50.008;10.596;2023-03-19T14:34:06;15.10;99.90
11047;DHT22;5576;50.008;10.596;2023-03-19T14:36:40;15.10;99.90
11047;DHT22;5576;50.008;10.596;2023-03-19T14:39:17;15.10;99.90
11047;DHT22;5576;50.008;10.596;2023-03-19T14:41:45;15.10;99.90
11047;DHT22;5576;50.008;10.596;2023-03-19T14:50:12;15.00;99.90
11047;DHT22;5576;50.008;10.596;2023-03-19T14:52:45;15.00;99.90
11047;DHT22;5576;50.008;10.596;2023-03-19T14:55:15;15.00;99.90
11047;DHT22;5576;50.008;10.596;2023-03-19T14:57:42;14.80;99.90
11047;DHT22;5576;50.008;10.596;2023-03-19T15:00:16;14.80;99.90
11047;DHT22;5576;50.008;10.596;2023-03-19T15:02:47;14.00;99.90
11047;DHT22;5576;50.008;10.596;2023-03-19T15:05:28;14.70;99.90
11047;DHT22;5576;50.008;10.596;2023-03-19T15:08:00;11.80;99.90
11047;DHT22;5576;50.008;10.596;2023-03-19T15:10:29;14.60;99.90
11047;DHT22;5576;50.008;10.596;2023-03-19T15:18:45;14.60;99.90
11047;DHT22;5576;50.008;10.596;2023-03-19T15:21:11;14.60;99.90
11047;DHT22;5576;50.008;10.596;2023-03-19T15:23:39;17.50;99.90
11047;DHT22;5576;50.008;10.596;2023-03-19T15:26:05;14.60;99.90
11047;DHT22;5576;50.008;10.596;2023-03-19T15:28:51;13.90;99.90
11047;DHT22;5576;50.008;10.596;2023-03-19T15:31:18;14.70;99.90
11047;DHT22;5576;50.008;10.596;2023-03-19T15:33:43;14.70;99.90
11047;DHT22;5576;50.008;10.596;2023-03-19T15:36:12;14.70;99.90
11047;DHT22;5576;50.008;10.596;2023-03-19T15:38:48;14.70;99.90
11047;DHT22;5576;50.008;10.596;2023-03-19T15:41:16;14.70;99.90
11047;DHT22;5576;50.008;10.596;2023-03-19T15:43:43;14.60;99.90
11047;DHT22;5576;50.008;10.596;2023-03-19T15:46:13;14.70;99.90
11047;DHT22;5576;50.008;10.596;2023-03-19T15:48:42;17.20;99.90
11047;DHT22;5576;50.008;10.596;2023-03-19T15:51:13;14.60;99.90
11047;DHT22;5576;50.008;10.596;2023-03-19T15:53:40;16.40;99.90
11047;DHT22;5576;50.008;10.596;2023-03-19T15:56:07;17.10;99.90
11047;DHT22;5576;50.008;10.596;2023-03-19T15:58:40;14.80;99.90
11047;DHT22;5576;50.008;10.596;2023-03-19T16:01:08;14.90;99.90
11047;DHT22;5576;50.008;10.596;2023-03-19T16:03:38;14.90;99.90
11047;DHT22;5576;50.008;10.596;2023-03-19T16:06:11;18.40;99.90
11047;DHT22;5576;50.008;10.596;2023-03-19T16:08:46;14.80;99.90
11047;DHT22;5576;50.008;10.596;2023-03-19T16:14:07;14.70;99.90
11047;DHT22;5576;50.008;10.596;2023-03-19T16:16:34;14.50;99.90
11047;DHT22;5576;50.008;10.596;2023-03-19T16:19:03;14.40;99.90
11047;DHT22;5576;50.008;10.596;2023-03-19T16:21:38;14.40;99.90
11047;DHT22;5576;50.008;10.596;2023-03-19T16:26:41;14.30;99.90
11047;DHT22;5576;50.008;10.596;2023-03-19T16:29:25;14.30;99.90
11047;DHT22;5576;50.008;10.596;2023-03-19T16:36:51;14.90;99.90
11047;DHT22;5576;50.008;10.596;2023-03-19T16:39:24;14.00;99.90
11047;DHT22;5576;50.008;10.596;2023-03-19T16:44:39;13.90;99.90
11047;DHT22;5576;50.008;10.596;2023-03-19T16:47:10;13.60;99.90
11047;DHT22;5576;50.008;10.596;2023-03-19T16:49:36;13.60;99.90
11047;DHT22;5576;50.008;10.596;2023-03-19T16:52:02;13.40;99.90
11047;DHT22;5576;50.008;10.596;2023-03-19T16:54:28;16.30;99.90
11047;DHT22;5576;50.008;10.596;2023-03-19T16:56:55;15.00;99.90
11047;DHT22;5576;50.008;10.596;2023-03-19T16:59:26;12.90;99.90
11047;DHT22;5576;50.008;10.596;2023-03-19T17:01:52;12.40;99.90
11047;DHT22;5576;50.008;10.596;2023-03-19T17:04:18;14.10;99.90
11047;DHT22;5576;50.008;10.596;2023-03-19T17:06:44;11.60;99.90
11047;DHT22;5576;50.008;10.596;2023-03-19T17:09:10;11.50;99.90
11047;DHT22;5576;50.008;10.596;2023-03-19T17:11:38;11.30;99.90
11047;DHT22;5576;50.008;10.596;2023-03-19T17:14:06;11.30;99.90
11047;DHT22;5576;50.008;10.596;2023-03-19T17:16:37;11.30;99.90
11047;DHT22;5576;50.008;10.596;2023-03-19T17:19:05;11.30;99.90
11047;DHT22;5576;50.008;10.596;2023-03-19T17:21:36;11.20;99.90
11047;DHT22;5576;50.008;10.596;2023-03-19T17:24:31;11.10;99.90
11047;DHT22;5576;50.008;10.596;2023-03-19T17:26:59;13.50;99.90
11047;DHT22;5576;50.008;10.596;2023-03-19T17:29:25;10.70;99.90
11047;DHT22;5576;50.008;10.596;2023-03-19T17:31:52;11.20;99.90
11047;DHT22;5576;50.008;10.596;2023-03-19T17:34:22;11.30;99.90
11047;DHT22;5576;50.008;10.596;2023-03-19T17:36:55;11.90;99.90
11047;DHT22;5576;50.008;10.596;2023-03-19T17:39:22;11.00;99.90
11047;DHT22;5576;50.008;10.596;2023-03-19T17:41:49;14.00;99.90
11047;DHT22;5576;50.008;10.596;2023-03-19T17:44:15;10.90;99.90
11047;DHT22;5576;50.008;10.596;2023-03-19T17:46:45;10.90;99.90
11047;DHT22;5576;50.008;10.596;2023-03-19T17:49:19;11.20;99.90
11047;DHT22;5576;50.008;10.596;2023-03-19T17:51:46;11.30;99.90
11047;DHT22;5576;50.008;10.596;2023-03-19T17:54:12;11.30;99.90
11047;DHT22;5576;50.008;10.596;2023-03-19T17:56:38;11.40;99.90
11047;DHT22;5576;50.008;10.596;2023-03-19T17:59:06;14.10;99.90
11047;DHT22;5576;50.008;10.596;2023-03-19T18:01:32;11.80;99.90
11047;DHT22;5576;50.008;10.596;2023-03-19T18:03:58;11.70;99.90
11047;DHT22;5576;50.008;10.596;2023-03-19T18:06:30;11.50;99.90